sensor_id;sensor_type;location;lat;lon;timestamp;pressure;altitude;pressure_sealevel;temperature;humidity
70338;BME280;57757;53.198;19.646;2022-08-23T00:01:59;100052.23;;;19.14;64.14
70338;BME280;57757;53.198;19.646;2022-08-23T00:04:30;100057.81;;;19.12;64.15
70338;BME280;57757;53.198;19.646;2022-08-23T00:07:04;100057.16;;;19.11;64.26
70338;BME280;57757;53.198;19.646;2022-08-23T00:09:32;100055.72;;;19.09;64.15
70338;BME280;57757;53.198;19.646;2022-08-23T00:12:15;100052.69;;;19.06;64.30
70338;BME280;57757;53.198;19.646;2022-08-23T00:14:48;100048.77;;;19.04;64.33
70338;BME280;57757;53.198;19.646;2022-08-23T00:17:19;100049.77;;;19.02;64.35
70338;BME280;57757;53.198;19.646;2022-08-23T00:20:06;100050.00;;;19.01;64.38
70338;BME280;57757;53.198;19.646;2022-08-23T00:22:36;100052.20;;;19.00;64.46
70338;BME280;57757;53.198;19.646;2022-08-23T00:25:06;100052.02;;;18.97;64.51
70338;BME280;57757;53.198;19.646;2022-08-23T00:27:34;100045.83;;;18.95;64.60
70338;BME280;57757;53.198;19.646;2022-08-23T00:30:05;100042.36;;;18.94;64.69
70338;BME280;57757;53.198;19.646;2022-08-23T00:32:34;100043.11;;;18.93;64.53
70338;BME280;57757;53.198;19.646;2022-08-23T00:35:04;100042.36;;;18.94;64.69
70338;BME280;57757;53.198;19.646;2022-08-23T00:37:32;100046.92;;;18.94;64.75
70338;BME280;57757;53.198;19.646;2022-08-23T00:40:00;100048.82;;;18.95;64.88
70338;BME280;57757;53.198;19.646;2022-08-23T00:45:30;100049.25;;;18.91;64.82
70338;BME280;57757;53.198;19.646;2022-08-23T00:48:15;100055.98;;;18.87;64.95
70338;BME280;57757;53.198;19.646;2022-08-23T00:50:50;100057.24;;;18.83;64.88
70338;BME280;57757;53.198;19.646;2022-08-23T00:53:27;100058.62;;;18.82;64.98
70338;BME280;57757;53.198;19.646;2022-08-23T00:55:59;100061.00;;;18.80;65.02
70338;BME280;57757;53.198;19.646;2022-08-23T00:58:30;100056.46;;;18.79;65.04
70338;BME280;57757;53.198;19.646;2022-08-23T01:01:00;100051.73;;;18.78;65.09
70338;BME280;57757;53.198;19.646;2022-08-23T01:03:32;100048.94;;;18.78;65.17
70338;BME280;57757;53.198;19.646;2022-08-23T01:08:54;100051.88;;;18.79;65.16
70338;BME280;57757;53.198;19.646;2022-08-23T01:11:39;100047.48;;;18.79;65.26
70338;BME280;57757;53.198;19.646;2022-08-23T01:14:25;100044.77;;;18.80;65.29
70338;BME280;57757;53.198;19.646;2022-08-23T01:17:01;100048.58;;;18.78;65.29
70338;BME280;57757;53.198;19.646;2022-08-23T01:19:48;100047.56;;;18.78;65.42
70338;BME280;57757;53.198;19.646;2022-08-23T01:22:33;100046.98;;;18.76;65.39
70338;BME280;57757;53.198;19.646;2022-08-23T01:25:04;100044.73;;;18.72;65.43
70338;BME280;57757;53.198;19.646;2022-08-23T01:27:37;100045.30;;;18.68;65.44
70338;BME280;57757;53.198;19.646;2022-08-23T01:30:08;100053.69;;;18.67;65.64
70338;BME280;57757;53.198;19.646;2022-08-23T01:32:43;100055.14;;;18.66;65.63
70338;BME280;57757;53.198;19.646;2022-08-23T01:35:12;100058.45;;;18.66;65.64
70338;BME280;57757;53.198;19.646;2022-08-23T01:37:40;100055.09;;;18.67;65.69
70338;BME280;57757;53.198;19.646;2022-08-23T01:40:08;100057.11;;;18.65;65.75
70338;BME280;57757;53.198;19.646;2022-08-23T01:42:36;100055.23;;;18.64;65.76
70338;BME280;57757;53.198;19.646;2022-08-23T01:45:10;100059.33;;;18.63;65.82
70338;BME280;57757;53.198;19.646;2022-08-23T01:47:38;100060.31;;;18.61;65.78
70338;BME280;57757;53.198;19.646;2022-08-23T01:50:09;100060.55;;;18.60;65.91
70338;BME280;57757;53.198;19.646;2022-08-23T01:52:39;100055.55;;;18.58;65.86
70338;BME280;57757;53.198;19.646;2022-08-23T01:55:15;100056.83;;;18.58;65.90
70338;BME280;57757;53.198;19.646;2022-08-23T01:57:44;100054.42;;;18.57;66.02
70338;BME280;57757;53.198;19.646;2022-08-23T02:00:17;100054.21;;;18.54;65.86
70338;BME280;57757;53.198;19.646;2022-08-23T02:02:46;100049.91;;;18.52;66.11
70338;BME280;57757;53.198;19.646;2022-08-23T02:05:14;100051.80;;;18.50;66.05
70338;BME280;57757;53.198;19.646;2022-08-23T02:07:46;100049.45;;;18.48;66.08
70338;BME280;57757;53.198;19.646;2022-08-23T02:10:15;100051.98;;;18.47;66.10
70338;BME280;57757;53.198;19.646;2022-08-23T02:12:43;100051.01;;;18.45;66.32
70338;BME280;57757;53.198;19.646;2022-08-23T02:15:10;100053.74;;;18.44;66.32
70338;BME280;57757;53.198;19.646;2022-08-23T02:17:39;100063.88;;;18.42;66.26
70338;BME280;57757;53.198;19.646;2022-08-23T02:20:07;100072.77;;;18.40;66.33
70338;BME280;57757;53.198;19.646;2022-08-23T02:22:35;100080.21;;;18.40;66.28
70338;BME280;57757;53.198;19.646;2022-08-23T02:25:07;100082.99;;;18.37;66.39
70338;BME280;57757;53.198;19.646;2022-08-23T02:27:34;100086.58;;;18.36;66.49
70338;BME280;57757;53.198;19.646;2022-08-23T02:30:02;100088.19;;;18.36;66.37
70338;BME280;57757;53.198;19.646;2022-08-23T02:32:31;100089.14;;;18.37;66.60
70338;BME280;57757;53.198;19.646;2022-08-23T02:34:58;100087.19;;;18.38;66.76
70338;BME280;57757;53.198;19.646;2022-08-23T02:37:33;100084.72;;;18.38;66.72
70338;BME280;57757;53.198;19.646;2022-08-23T02:40:04;100086.85;;;18.37;66.69
70338;BME280;57757;53.198;19.646;2022-08-23T02:42:32;100088.80;;;18.37;66.62
70338;BME280;57757;53.198;19.646;2022-08-23T02:44:59;100089.61;;;18.38;66.67
70338;BME280;57757;53.198;19.646;2022-08-23T02:47:27;100093.98;;;18.39;66.79
70338;BME280;57757;53.198;19.646;2022-08-23T02:49:54;100093.55;;;18.40;66.81
70338;BME280;57757;53.198;19.646;2022-08-23T02:52:22;100102.14;;;18.41;66.86
70338;BME280;57757;53.198;19.646;2022-08-23T02:54:49;100103.55;;;18.41;66.78
70338;BME280;57757;53.198;19.646;2022-08-23T02:57:19;100098.84;;;18.40;66.93
70338;BME280;57757;53.198;19.646;2022-08-23T02:59:47;100099.13;;;18.38;66.89
70338;BME280;57757;53.198;19.646;2022-08-23T03:02:14;100098.75;;;18.36;66.87
70338;BME280;57757;53.198;19.646;2022-08-23T03:04:42;100101.58;;;18.36;66.85
70338;BME280;57757;53.198;19.646;2022-08-23T03:07:09;100098.08;;;18.35;66.99
70338;BME280;57757;53.198;19.646;2022-08-23T03:09:37;100103.58;;;18.35;67.10
70338;BME280;57757;53.198;19.646;2022-08-23T03:12:05;100100.77;;;18.34;67.04
70338;BME280;57757;53.198;19.646;2022-08-23T03:14:32;100097.77;;;18.34;67.18
70338;BME280;57757;53.198;19.646;2022-08-23T03:17:04;100103.05;;;18.35;67.07
70338;BME280;57757;53.198;19.646;2022-08-23T03:19:34;100101.27;;;18.35;67.14
70338;BME280;57757;53.198;19.646;2022-08-23T03:22:02;100101.58;;;18.36;67.15
70338;BME280;57757;53.198;19.646;2022-08-23T03:24:29;100097.48;;;18.36;67.25
70338;BME280;57757;53.198;19.646;2022-08-23T03:26:57;100092.72;;;18.40;67.25
70338;BME280;57757;53.198;19.646;2022-08-23T03:29:25;100087.41;;;18.40;67.33
70338;BME280;57757;53.198;19.646;2022-08-23T03:31:52;100085.02;;;18.42;67.23
70338;BME280;57757;53.198;19.646;2022-08-23T03:34:20;100088.05;;;18.44;67.29
70338;BME280;57757;53.198;19.646;2022-08-23T03:36:48;100086.86;;;18.46;67.29
70338;BME280;57757;53.198;19.646;2022-08-23T03:39:16;100087.99;;;18.48;67.41
70338;BME280;57757;53.198;19.646;2022-08-23T03:41:43;100087.78;;;18.49;67.42
70338;BME280;57757;53.198;19.646;2022-08-23T03:44:11;100087.75;;;18.49;67.46
70338;BME280;57757;53.198;19.646;2022-08-23T03:46:38;100089.86;;;18.49;67.54
70338;BME280;57757;53.198;19.646;2022-08-23T03:49:06;100094.39;;;18.50;67.52
70338;BME280;57757;53.198;19.646;2022-08-23T03:51:34;100096.05;;;18.53;67.60
70338;BME280;57757;53.198;19.646;2022-08-23T03:54:01;100095.38;;;18.55;67.71
70338;BME280;57757;53.198;19.646;2022-08-23T03:56:32;100085.97;;;18.59;67.74
70338;BME280;57757;53.198;19.646;2022-08-23T03:59:06;100090.51;;;18.63;67.65
70338;BME280;57757;53.198;19.646;2022-08-23T04:01:34;100087.79;;;18.65;67.59
70338;BME280;57757;53.198;19.646;2022-08-23T04:04:03;100091.86;;;18.67;67.66
70338;BME280;57757;53.198;19.646;2022-08-23T04:06:30;100089.54;;;18.71;67.90
70338;BME280;57757;53.198;19.646;2022-08-23T04:08:59;100079.82;;;18.74;67.93
70338;BME280;57757;53.198;19.646;2022-08-23T04:11:27;100076.02;;;18.76;67.79
70338;BME280;57757;53.198;19.646;2022-08-23T04:13:54;100079.02;;;18.76;67.83
70338;BME280;57757;53.198;19.646;2022-08-23T04:16:22;100078.81;;;18.76;68.00
70338;BME280;57757;53.198;19.646;2022-08-23T04:18:49;100073.85;;;18.80;68.19
70338;BME280;57757;53.198;19.646;2022-08-23T04:21:19;100069.07;;;18.83;67.98
70338;BME280;57757;53.198;19.646;2022-08-23T04:23:49;100068.52;;;18.87;68.15
70338;BME280;57757;53.198;19.646;2022-08-23T04:26:17;100069.12;;;18.91;68.21
70338;BME280;57757;53.198;19.646;2022-08-23T04:28:44;100067.10;;;18.96;68.20
70338;BME280;57757;53.198;19.646;2022-08-23T04:31:12;100066.52;;;18.99;68.32
70338;BME280;57757;53.198;19.646;2022-08-23T04:33:41;100063.39;;;19.04;68.41
70338;BME280;57757;53.198;19.646;2022-08-23T04:36:09;100059.54;;;19.07;68.36
70338;BME280;57757;53.198;19.646;2022-08-23T04:38:36;100051.77;;;19.07;68.21
70338;BME280;57757;53.198;19.646;2022-08-23T04:41:04;100046.68;;;19.06;68.19
70338;BME280;57757;53.198;19.646;2022-08-23T04:43:48;100045.81;;;19.06;68.26
70338;BME280;57757;53.198;19.646;2022-08-23T04:46:16;100046.08;;;19.08;68.37
70338;BME280;57757;53.198;19.646;2022-08-23T04:48:45;100046.77;;;19.11;68.43
70338;BME280;57757;53.198;19.646;2022-08-23T04:51:13;100051.36;;;19.14;68.42
70338;BME280;57757;53.198;19.646;2022-08-23T04:53:41;100059.23;;;19.18;68.59
70338;BME280;57757;53.198;19.646;2022-08-23T04:56:09;100060.53;;;19.22;68.59
70338;BME280;57757;53.198;19.646;2022-08-23T04:58:37;100057.60;;;19.27;68.64
70338;BME280;57757;53.198;19.646;2022-08-23T05:01:07;100054.62;;;19.32;68.57
70338;BME280;57757;53.198;19.646;2022-08-23T05:03:36;100052.64;;;19.36;68.57
70338;BME280;57757;53.198;19.646;2022-08-23T05:06:04;100049.05;;;19.40;68.48
70338;BME280;57757;53.198;19.646;2022-08-23T05:08:32;100058.98;;;19.45;68.65
70338;BME280;57757;53.198;19.646;2022-08-23T05:11:02;100061.10;;;19.50;68.67
70338;BME280;57757;53.198;19.646;2022-08-23T05:13:31;100065.07;;;19.54;68.78
70338;BME280;57757;53.198;19.646;2022-08-23T05:16:02;100069.55;;;19.56;68.67
70338;BME280;57757;53.198;19.646;2022-08-23T05:18:30;100070.87;;;19.61;68.67
70338;BME280;57757;53.198;19.646;2022-08-23T05:20:57;100066.91;;;19.65;68.69
70338;BME280;57757;53.198;19.646;2022-08-23T05:23:26;100064.86;;;19.69;68.73
70338;BME280;57757;53.198;19.646;2022-08-23T05:25:59;100073.75;;;19.74;68.65
70338;BME280;57757;53.198;19.646;2022-08-23T05:28:29;100101.23;;;19.77;68.73
70338;BME280;57757;53.198;19.646;2022-08-23T05:33:38;100135.20;;;19.79;68.77
70338;BME280;57757;53.198;19.646;2022-08-23T05:36:08;100142.88;;;19.80;68.98
70338;BME280;57757;53.198;19.646;2022-08-23T05:38:36;100144.68;;;19.82;68.82
70338;BME280;57757;53.198;19.646;2022-08-23T05:41:04;100144.97;;;19.86;68.93
70338;BME280;57757;53.198;19.646;2022-08-23T05:43:34;100148.38;;;19.91;69.01
70338;BME280;57757;53.198;19.646;2022-08-23T05:46:12;100153.20;;;19.95;68.80
70338;BME280;57757;53.198;19.646;2022-08-23T05:48:42;100149.09;;;20.08;69.14
70338;BME280;57757;53.198;19.646;2022-08-23T05:51:27;100151.74;;;20.29;69.10
70338;BME280;57757;53.198;19.646;2022-08-23T05:54:04;100146.95;;;20.58;69.06
70338;BME280;57757;53.198;19.646;2022-08-23T05:56:35;100146.98;;;20.76;68.92
70338;BME280;57757;53.198;19.646;2022-08-23T05:59:06;100131.58;;;21.03;68.98
70338;BME280;57757;53.198;19.646;2022-08-23T06:01:39;100123.39;;;21.34;68.80
70338;BME280;57757;53.198;19.646;2022-08-23T06:04:09;100128.04;;;21.57;68.40
70338;BME280;57757;53.198;19.646;2022-08-23T06:06:40;100126.56;;;21.70;68.09
70338;BME280;57757;53.198;19.646;2022-08-23T06:09:13;100129.39;;;21.93;68.34
70338;BME280;57757;53.198;19.646;2022-08-23T06:11:43;100139.21;;;22.16;68.21
70338;BME280;57757;53.198;19.646;2022-08-23T06:14:12;100141.31;;;22.31;67.81
70338;BME280;57757;53.198;19.646;2022-08-23T06:16:43;100135.83;;;22.43;67.61
70338;BME280;57757;53.198;19.646;2022-08-23T06:19:12;100136.51;;;22.49;67.21
70338;BME280;57757;53.198;19.646;2022-08-23T06:21:41;100139.50;;;22.56;67.18
70338;BME280;57757;53.198;19.646;2022-08-23T06:24:10;100138.21;;;22.73;67.49
70338;BME280;57757;53.198;19.646;2022-08-23T06:26:42;100145.08;;;22.91;67.31
70338;BME280;57757;53.198;19.646;2022-08-23T06:29:14;100154.61;;;22.98;66.93
70338;BME280;57757;53.198;19.646;2022-08-23T06:31:45;100160.70;;;23.02;66.97
70338;BME280;57757;53.198;19.646;2022-08-23T06:36:48;100159.48;;;22.78;66.42
70338;BME280;57757;53.198;19.646;2022-08-23T06:39:17;100161.21;;;22.77;66.62
70338;BME280;57757;53.198;19.646;2022-08-23T06:41:45;100159.71;;;22.82;66.72
70338;BME280;57757;53.198;19.646;2022-08-23T06:44:17;100165.91;;;22.94;66.88
70338;BME280;57757;53.198;19.646;2022-08-23T06:46:46;100165.64;;;22.98;66.42
70338;BME280;57757;53.198;19.646;2022-08-23T06:49:15;100170.37;;;23.03;66.62
70338;BME280;57757;53.198;19.646;2022-08-23T06:51:47;100168.56;;;23.08;66.46
70338;BME280;57757;53.198;19.646;2022-08-23T06:54:17;100168.27;;;23.10;66.52
70338;BME280;57757;53.198;19.646;2022-08-23T06:56:47;100159.59;;;23.12;66.49
70338;BME280;57757;53.198;19.646;2022-08-23T06:59:16;100157.05;;;23.17;66.60
70338;BME280;57757;53.198;19.646;2022-08-23T07:02:02;100159.95;;;23.25;66.42
70338;BME280;57757;53.198;19.646;2022-08-23T07:04:33;100164.59;;;23.30;66.32
70338;BME280;57757;53.198;19.646;2022-08-23T07:07:02;100169.71;;;23.40;66.29
70338;BME280;57757;53.198;19.646;2022-08-23T07:09:36;100173.30;;;23.44;66.12
70338;BME280;57757;53.198;19.646;2022-08-23T07:12:04;100175.60;;;23.45;66.06
70338;BME280;57757;53.198;19.646;2022-08-23T07:14:33;100175.56;;;23.52;66.24
70338;BME280;57757;53.198;19.646;2022-08-23T07:17:02;100177.64;;;23.64;66.16
70338;BME280;57757;53.198;19.646;2022-08-23T07:19:32;100181.85;;;23.71;65.95
70338;BME280;57757;53.198;19.646;2022-08-23T07:22:02;100183.23;;;23.76;65.70
70338;BME280;57757;53.198;19.646;2022-08-23T07:24:31;100182.59;;;23.79;65.73
70338;BME280;57757;53.198;19.646;2022-08-23T07:27:02;100185.23;;;23.87;65.64
70338;BME280;57757;53.198;19.646;2022-08-23T07:29:35;100184.89;;;23.93;65.64
70338;BME280;57757;53.198;19.646;2022-08-23T07:32:04;100177.38;;;24.03;65.54
70338;BME280;57757;53.198;19.646;2022-08-23T07:34:32;100175.15;;;24.06;65.36
70338;BME280;57757;53.198;19.646;2022-08-23T07:36:59;100179.15;;;24.12;65.33
70338;BME280;57757;53.198;19.646;2022-08-23T07:39:27;100177.05;;;24.18;65.20
70338;BME280;57757;53.198;19.646;2022-08-23T07:41:59;100176.21;;;24.29;65.15
70338;BME280;57757;53.198;19.646;2022-08-23T07:44:27;100176.31;;;24.38;65.01
70338;BME280;57757;53.198;19.646;2022-08-23T07:46:56;100174.71;;;24.45;64.92
70338;BME280;57757;53.198;19.646;2022-08-23T07:49:23;100165.84;;;24.53;64.79
70338;BME280;57757;53.198;19.646;2022-08-23T07:51:55;100161.30;;;24.63;64.74
70338;BME280;57757;53.198;19.646;2022-08-23T07:54:25;100165.48;;;24.73;64.70
70338;BME280;57757;53.198;19.646;2022-08-23T07:56:54;100163.60;;;24.80;64.53
70338;BME280;57757;53.198;19.646;2022-08-23T07:59:21;100166.94;;;24.92;64.44
70338;BME280;57757;53.198;19.646;2022-08-23T08:01:50;100164.96;;;25.03;64.49
70338;BME280;57757;53.198;19.646;2022-08-23T08:04:17;100168.63;;;25.12;64.34
70338;BME280;57757;53.198;19.646;2022-08-23T08:06:47;100167.96;;;25.20;64.13
70338;BME280;57757;53.198;19.646;2022-08-23T08:09:36;100170.59;;;25.16;63.68
70338;BME280;57757;53.198;19.646;2022-08-23T08:12:03;100169.95;;;25.13;63.89
70338;BME280;57757;53.198;19.646;2022-08-23T08:14:31;100164.99;;;25.19;63.89
70338;BME280;57757;53.198;19.646;2022-08-23T08:17:02;100162.80;;;25.26;63.90
70338;BME280;57757;53.198;19.646;2022-08-23T08:19:31;100168.95;;;25.28;63.79
70338;BME280;57757;53.198;19.646;2022-08-23T08:21:58;100167.91;;;25.20;63.57
70338;BME280;57757;53.198;19.646;2022-08-23T08:24:26;100169.63;;;25.17;63.62
70338;BME280;57757;53.198;19.646;2022-08-23T08:26:53;100166.79;;;25.17;63.71
70338;BME280;57757;53.198;19.646;2022-08-23T08:29:21;100167.67;;;25.26;64.00
70338;BME280;57757;53.198;19.646;2022-08-23T08:31:48;100163.26;;;25.38;63.74
70338;BME280;57757;53.198;19.646;2022-08-23T08:34:21;100160.79;;;25.50;63.61
70338;BME280;57757;53.198;19.646;2022-08-23T08:36:52;100163.61;;;25.63;63.59
70338;BME280;57757;53.198;19.646;2022-08-23T08:57:42;100169.55;;;26.25;62.91
70338;BME280;57757;53.198;19.646;2022-08-23T09:00:18;100166.96;;;26.36;62.70
70338;BME280;57757;53.198;19.646;2022-08-23T09:15:51;100173.20;;;27.68;62.17
70338;BME280;57757;53.198;19.646;2022-08-23T09:18:23;100168.30;;;28.24;61.95
70338;BME280;57757;53.198;19.646;2022-08-23T09:20:53;100167.99;;;28.45;61.94
70338;BME280;57757;53.198;19.646;2022-08-23T09:23:30;100170.55;;;28.62;61.60
70338;BME280;57757;53.198;19.646;2022-08-23T09:26:19;100167.40;;;28.76;61.50
70338;BME280;57757;53.198;19.646;2022-08-23T09:28:57;100163.00;;;28.93;61.24
70338;BME280;57757;53.198;19.646;2022-08-23T09:31:43;100161.77;;;29.01;60.90
70338;BME280;57757;53.198;19.646;2022-08-23T09:34:18;100162.75;;;29.17;60.90
70338;BME280;57757;53.198;19.646;2022-08-23T09:36:47;100162.46;;;29.32;60.67
70338;BME280;57757;53.198;19.646;2022-08-23T09:39:31;100160.84;;;29.48;60.56
70338;BME280;57757;53.198;19.646;2022-08-23T09:41:59;100156.98;;;29.68;60.54
70338;BME280;57757;53.198;19.646;2022-08-23T09:44:42;100160.56;;;29.78;59.82
70338;BME280;57757;53.198;19.646;2022-08-23T09:47:13;100160.44;;;29.79;59.77
70338;BME280;57757;53.198;19.646;2022-08-23T09:49:45;100159.44;;;29.93;59.72
70338;BME280;57757;53.198;19.646;2022-08-23T09:52:24;100158.91;;;30.11;59.70
70338;BME280;57757;53.198;19.646;2022-08-23T09:54:58;100158.61;;;30.29;59.41
70338;BME280;57757;53.198;19.646;2022-08-23T09:57:30;100156.50;;;30.47;59.27
70338;BME280;57757;53.198;19.646;2022-08-23T10:00:24;100156.45;;;30.67;59.20
70338;BME280;57757;53.198;19.646;2022-08-23T10:05:40;100155.71;;;31.14;58.57
70338;BME280;57757;53.198;19.646;2022-08-23T10:08:07;100152.30;;;31.31;58.11
70338;BME280;57757;53.198;19.646;2022-08-23T10:10:40;100146.95;;;31.43;57.92
70338;BME280;57757;53.198;19.646;2022-08-23T10:13:17;100147.02;;;31.55;57.78
70338;BME280;57757;53.198;19.646;2022-08-23T10:15:58;100147.35;;;31.58;57.23
70338;BME280;57757;53.198;19.646;2022-08-23T10:21:40;100146.45;;;31.31;56.78
70338;BME280;57757;53.198;19.646;2022-08-23T10:24:33;100144.17;;;31.19;56.65
70338;BME280;57757;53.198;19.646;2022-08-23T10:36:02;100142.40;;;31.28;56.16
70338;BME280;57757;53.198;19.646;2022-08-23T10:49:37;100153.07;;;31.44;55.32
70338;BME280;57757;53.198;19.646;2022-08-23T10:52:08;100148.90;;;31.44;55.03
70338;BME280;57757;53.198;19.646;2022-08-23T10:54:51;100146.60;;;31.49;55.17
70338;BME280;57757;53.198;19.646;2022-08-23T10:57:33;100147.55;;;31.51;54.92
70338;BME280;57757;53.198;19.646;2022-08-23T11:00:08;100149.83;;;31.68;55.04
70338;BME280;57757;53.198;19.646;2022-08-23T11:02:46;100145.58;;;31.98;54.87
70338;BME280;57757;53.198;19.646;2022-08-23T11:05:22;100141.21;;;32.37;54.73
70338;BME280;57757;53.198;19.646;2022-08-23T11:08:01;100141.66;;;32.76;54.51
70338;BME280;57757;53.198;19.646;2022-08-23T11:10:41;100140.57;;;33.02;54.01
70338;BME280;57757;53.198;19.646;2022-08-23T11:13:25;100138.20;;;32.92;53.23
70338;BME280;57757;53.198;19.646;2022-08-23T11:18:46;100129.70;;;32.66;53.13
70338;BME280;57757;53.198;19.646;2022-08-23T11:29:25;100124.66;;;32.57;52.54
70338;BME280;57757;53.198;19.646;2022-08-23T11:37:52;100128.91;;;32.08;52.39
70338;BME280;57757;53.198;19.646;2022-08-23T11:43:38;100128.52;;;31.72;52.45
70338;BME280;57757;53.198;19.646;2022-08-23T12:03:29;100110.30;;;32.09;52.43
70338;BME280;57757;53.198;19.646;2022-08-23T12:06:35;100109.29;;;32.72;52.05
70338;BME280;57757;53.198;19.646;2022-08-23T12:19:44;100098.56;;;34.31;50.51
70338;BME280;57757;53.198;19.646;2022-08-23T12:22:18;100094.16;;;34.29;50.27
70338;BME280;57757;53.198;19.646;2022-08-23T12:25:05;100091.45;;;34.25;50.02
70338;BME280;57757;53.198;19.646;2022-08-23T12:27:45;100084.41;;;34.06;49.78
70338;BME280;57757;53.198;19.646;2022-08-23T12:30:24;100086.48;;;33.79;49.72
70338;BME280;57757;53.198;19.646;2022-08-23T12:35:47;100106.05;;;33.23;49.57
70338;BME280;57757;53.198;19.646;2022-08-23T12:41:21;100112.31;;;32.50;49.74
70338;BME280;57757;53.198;19.646;2022-08-23T12:44:05;100127.18;;;32.12;49.84
70338;BME280;57757;53.198;19.646;2022-08-23T12:46:38;100130.77;;;31.52;49.02
70338;BME280;57757;53.198;19.646;2022-08-23T12:49:09;100119.30;;;30.74;48.57
70338;BME280;57757;53.198;19.646;2022-08-23T12:51:47;100120.17;;;30.03;48.69
70338;BME280;57757;53.198;19.646;2022-08-23T12:54:18;100118.12;;;29.24;49.10
70338;BME280;57757;53.198;19.646;2022-08-23T12:56:51;100131.67;;;28.32;49.40
70338;BME280;57757;53.198;19.646;2022-08-23T12:59:37;100136.76;;;27.11;49.43
70338;BME280;57757;53.198;19.646;2022-08-23T13:02:17;100159.95;;;25.82;50.15
70338;BME280;57757;53.198;19.646;2022-08-23T13:04:47;100153.17;;;24.75;50.79
70338;BME280;57757;53.198;19.646;2022-08-23T13:07:18;100141.17;;;23.96;51.16
70338;BME280;57757;53.198;19.646;2022-08-23T13:09:48;100098.64;;;23.20;51.69
70338;BME280;57757;53.198;19.646;2022-08-23T13:12:22;100169.43;;;22.54;52.65
70338;BME280;57757;53.198;19.646;2022-08-23T13:14:52;100195.35;;;22.06;54.57
70338;BME280;57757;53.198;19.646;2022-08-23T13:17:33;100184.15;;;21.51;57.06
70338;BME280;57757;53.198;19.646;2022-08-23T13:22:35;100134.23;;;20.33;61.57
70338;BME280;57757;53.198;19.646;2022-08-23T13:27:57;100142.23;;;20.18;61.89
70338;BME280;57757;53.198;19.646;2022-08-23T13:30:28;100159.54;;;20.21;61.46
70338;BME280;57757;53.198;19.646;2022-08-23T13:35:49;100152.77;;;20.28;61.68
70338;BME280;57757;53.198;19.646;2022-08-23T13:38:29;100168.39;;;20.32;61.89
70338;BME280;57757;53.198;19.646;2022-08-23T13:41:02;100167.60;;;20.36;62.20
70338;BME280;57757;53.198;19.646;2022-08-23T13:49:04;100139.61;;;20.67;62.99
70338;BME280;57757;53.198;19.646;2022-08-23T13:51:41;100132.06;;;20.77;63.17
70338;BME280;57757;53.198;19.646;2022-08-23T13:54:12;100132.70;;;20.78;63.03
70338;BME280;57757;53.198;19.646;2022-08-23T13:56:45;100142.35;;;20.74;63.20
70338;BME280;57757;53.198;19.646;2022-08-23T13:59:24;100148.68;;;20.71;63.41
70338;BME280;57757;53.198;19.646;2022-08-23T14:02:00;100147.81;;;20.77;63.99
70338;BME280;57757;53.198;19.646;2022-08-23T14:04:29;100149.25;;;20.81;63.96
70338;BME280;57757;53.198;19.646;2022-08-23T14:06:56;100147.83;;;20.76;63.90
70338;BME280;57757;53.198;19.646;2022-08-23T14:09:24;100150.23;;;20.72;64.05
70338;BME280;57757;53.198;19.646;2022-08-23T14:11:54;100156.39;;;20.70;64.33
70338;BME280;57757;53.198;19.646;2022-08-23T14:14:24;100144.55;;;20.73;64.80
70338;BME280;57757;53.198;19.646;2022-08-23T14:16:52;100155.69;;;20.75;64.98
70338;BME280;57757;53.198;19.646;2022-08-23T14:19:20;100167.18;;;20.78;65.12
70338;BME280;57757;53.198;19.646;2022-08-23T14:22:08;100181.19;;;20.80;65.25
70338;BME280;57757;53.198;19.646;2022-08-23T14:24:35;100201.60;;;20.84;65.59
70338;BME280;57757;53.198;19.646;2022-08-23T14:27:03;100206.17;;;20.84;65.55
70338;BME280;57757;53.198;19.646;2022-08-23T14:29:32;100205.25;;;20.71;65.21
70338;BME280;57757;53.198;19.646;2022-08-23T14:31:59;100219.02;;;20.58;65.26
70338;BME280;57757;53.198;19.646;2022-08-23T14:34:28;100245.16;;;20.52;65.59
70338;BME280;57757;53.198;19.646;2022-08-23T14:36:58;100280.39;;;20.48;65.72
70338;BME280;57757;53.198;19.646;2022-08-23T14:39:46;100292.76;;;20.28;65.38
70338;BME280;57757;53.198;19.646;2022-08-23T14:42:17;100300.69;;;20.08;65.51
70338;BME280;57757;53.198;19.646;2022-08-23T14:44:45;100296.37;;;19.89;65.52
70338;BME280;57757;53.198;19.646;2022-08-23T14:47:13;100304.83;;;19.63;65.58
70338;BME280;57757;53.198;19.646;2022-08-23T14:49:40;100315.24;;;19.44;65.65
70338;BME280;57757;53.198;19.646;2022-08-23T14:52:09;100321.94;;;19.29;66.17
70338;BME280;57757;53.198;19.646;2022-08-23T14:54:37;100321.90;;;19.21;66.50
70338;BME280;57757;53.198;19.646;2022-08-23T14:57:05;100329.48;;;19.14;66.67
70338;BME280;57757;53.198;19.646;2022-08-23T14:59:33;100321.30;;;19.09;66.93
70338;BME280;57757;53.198;19.646;2022-08-23T15:02:02;100296.86;;;19.05;67.24
70338;BME280;57757;53.198;19.646;2022-08-23T15:04:32;100293.30;;;19.06;67.47
70338;BME280;57757;53.198;19.646;2022-08-23T15:07:03;100309.23;;;19.11;67.76
70338;BME280;57757;53.198;19.646;2022-08-23T15:09:48;100321.93;;;19.20;68.26
70338;BME280;57757;53.198;19.646;2022-08-23T15:12:18;100329.27;;;19.30;68.33
70338;BME280;57757;53.198;19.646;2022-08-23T15:15:09;100314.23;;;19.37;68.36
70338;BME280;57757;53.198;19.646;2022-08-23T15:17:56;100305.02;;;19.44;68.65
70338;BME280;57757;53.198;19.646;2022-08-23T15:20:28;100296.05;;;19.56;68.89